createdAt,value
2023-01-07T00:02:14.763Z,51.8
2023-01-07T00:07:38.509Z,51.8
2023-01-07T00:12:30.780Z,51.8
2023-01-07T00:17:38.682Z,51.7
2023-01-07T00:23:01.178Z,51.7
2023-01-07T00:27:37.303Z,51.6
2023-01-07T00:32:45.247Z,51.6
2023-01-07T00:37:37.535Z,51.6
2023-01-07T00:42:44.816Z,51.5
2023-01-07T00:47:52.471Z,51.5
2023-01-07T00:52:43.846Z,51.4
2023-01-07T00:57:50.289Z,51.4
2023-01-07T01:02:59.575Z,51.3
2023-01-07T01:08:22.411Z,51.3
2023-01-07T01:13:45.040Z,51.3
2023-01-07T01:18:52.310Z,51.3
2023-01-07T01:24:16.155Z,51.3
2023-01-07T01:29:38.750Z,51.2
2023-01-07T01:35:02.366Z,51.1
2023-01-07T01:40:25.574Z,51.1
2023-01-07T01:45:48.204Z,51.1
2023-01-07T01:51:11.862Z,51
2023-01-07T01:56:35.335Z,51
2023-01-07T02:01:58.401Z,50.9
2023-01-07T02:07:21.863Z,50.9
2023-01-07T02:12:29.638Z,50.9
2023-01-07T02:17:36.528Z,50.8
2023-01-07T02:23:00.408Z,50.8
2023-01-07T02:28:09.857Z,50.8
2023-01-07T02:33:16.364Z,51.3
2023-01-07T02:38:40.057Z,52.1
2023-01-07T02:44:02.650Z,53.1
2023-01-07T02:49:25.558Z,54.1
2023-01-07T02:54:48.932Z,55.1
2023-01-07T03:00:12.129Z,56.1
2023-01-07T03:05:34.826Z,57.1
2023-01-07T03:10:57.980Z,58.3
2023-01-07T03:16:20.889Z,59.3
2023-01-07T03:21:28.294Z,60.4
2023-01-07T03:26:35.585Z,61.2
2023-01-07T03:31:43.436Z,61.5
2023-01-07T03:37:05.630Z,61.6
2023-01-07T03:42:28.616Z,61.6
2023-01-07T03:47:51.978Z,61.5
2023-01-07T03:52:59.001Z,61.5
2023-01-07T03:57:50.547Z,61.5
2023-01-07T04:02:59.541Z,61.4
2023-01-07T04:08:06.217Z,61.4
2023-01-07T04:12:58.588Z,61.4
2023-01-07T04:18:08.596Z,61.4
2023-01-07T04:23:31.451Z,61.3
2023-01-07T04:28:54.377Z,61.3
2023-01-07T04:34:17.984Z,61.3
2023-01-07T04:39:40.661Z,61.2
2023-01-07T04:45:03.982Z,61.2
2023-01-07T04:49:56.476Z,61.1
2023-01-07T04:54:47.402Z,61.1
2023-01-07T05:00:11.069Z,61.1
2023-01-07T05:05:03.743Z,61.1
2023-01-07T05:09:56.804Z,61
2023-01-07T05:15:03.613Z,61
2023-01-07T05:20:11.848Z,60.9
2023-01-07T05:25:34.662Z,60.9
2023-01-07T05:30:57.357Z,60.8
2023-01-07T05:36:20.354Z,60.8
2023-01-07T05:41:28.422Z,60.8
2023-01-07T05:46:35.399Z,60.8
2023-01-07T05:51:43.341Z,60.7
2023-01-07T05:56:35.445Z,60.6
2023-01-07T06:01:27.059Z,60.6
2023-01-07T06:06:50.573Z,60.6
2023-01-07T06:12:15.948Z,60.5
2023-01-07T06:17:07.767Z,60.4
2023-01-07T06:22:15.859Z,60.4
2023-01-07T06:27:39.210Z,60.4
2023-01-07T06:32:46.835Z,60.4
2023-01-07T06:38:10.132Z,60.3
2023-01-07T06:43:17.878Z,60.3
2023-01-07T06:48:25.516Z,60.3
2023-01-07T06:53:33.651Z,60.2
2023-01-07T06:58:41.690Z,60.1
2023-01-07T07:03:50.229Z,60.1
2023-01-07T07:09:13.149Z,60.1
2023-01-07T07:14:21.270Z,60
2023-01-07T07:19:28.469Z,60
2023-01-07T07:24:35.772Z,59.9
2023-01-07T07:29:42.887Z,59.9
2023-01-07T07:35:08.820Z,59.9
2023-01-07T07:40:16.331Z,59.8
2023-01-07T07:46:03.439Z,59.8
2023-01-07T07:51:11.205Z,59.8
2023-01-07T07:56:43.746Z,59.6
2023-01-07T08:02:10.630Z,59.6
2023-01-07T08:07:31.980Z,59.5
2023-01-07T08:12:55.709Z,59.5
2023-01-07T08:18:03.944Z,59.4
2023-01-07T08:23:11.271Z,59.4
2023-01-07T08:28:34.482Z,59.3
2023-01-07T08:33:42.178Z,59.3
2023-01-07T08:38:57.059Z,59.3
2023-01-07T08:44:06.731Z,59.3
2023-01-07T08:49:30.741Z,59.2
2023-01-07T08:54:37.905Z,59.1
2023-01-07T08:59:45.617Z,59.1
2023-01-07T09:04:55.269Z,59.1
2023-01-07T09:10:02.995Z,59
2023-01-07T09:15:10.985Z,59.1
2023-01-07T09:20:18.914Z,59.3
2023-01-07T09:25:26.020Z,59.4
2023-01-07T09:30:33.759Z,59.8
2023-01-07T09:35:43.043Z,60.1
2023-01-07T09:40:34.948Z,60.5
2023-01-07T09:45:58.843Z,60.9
2023-01-07T09:50:50.961Z,61.3
2023-01-07T09:56:28.958Z,61.6
2023-01-07T10:01:36.751Z,62.1
2023-01-07T10:06:59.638Z,62.4
2023-01-07T10:12:33.520Z,62.8
2023-01-07T10:17:42.052Z,63.1
2023-01-07T10:22:49.959Z,63.6
2023-01-07T10:27:57.338Z,63.9
2023-01-07T10:33:04.514Z,64.3
2023-01-07T10:38:12.169Z,64.6
2023-01-07T10:43:34.014Z,65
2023-01-07T10:48:41.873Z,65.3
2023-01-07T10:54:07.570Z,65.6
2023-01-07T10:59:31.627Z,65.9
2023-01-07T11:04:09.853Z,66.3
2023-01-07T11:09:34.026Z,66.5
2023-01-07T11:14:57.614Z,66.9
2023-01-07T11:20:20.785Z,67.2
2023-01-07T11:26:00.768Z,67.4
2023-01-07T11:31:07.762Z,67.8
2023-01-07T11:37:09.757Z,68.1
2023-01-07T11:42:33.233Z,68.2
2023-01-07T11:48:15.737Z,68.4
2023-01-07T11:53:23.517Z,68.6
2023-01-07T11:59:03.811Z,68.6
2023-01-07T12:03:57.388Z,68.8
2023-01-07T12:09:21.429Z,68.8
2023-01-07T12:14:14.450Z,68.8
2023-01-07T12:19:07.108Z,68.7
2023-01-07T12:24:22.318Z,68.7
2023-01-07T12:29:44.485Z,68.6
2023-01-07T12:34:53.123Z,68.6
2023-01-07T12:39:51.164Z,68.6
2023-01-07T12:44:31.707Z,68.5
2023-01-07T12:49:52.603Z,68.5
2023-01-07T12:55:16.907Z,68.4
2023-01-07T13:00:53.031Z,68.4
2023-01-07T13:10:25.439Z,68.3
2023-01-07T13:15:50.535Z,68.3
2023-01-07T13:20:57.454Z,68.3
2023-01-07T13:26:52.038Z,68.2
2023-01-07T13:32:16.276Z,68.1
2023-01-07T13:37:38.841Z,68.1
2023-01-07T13:43:04.698Z,68.1
2023-01-07T13:48:27.880Z,68
2023-01-07T13:53:39.565Z,67.9
2023-01-07T13:59:04.035Z,67.9
2023-01-07T14:04:28.151Z,67.8
2023-01-07T14:09:50.392Z,67.8
2023-01-07T14:15:14.631Z,67.8
2023-01-07T14:20:21.879Z,67.6
2023-01-07T14:25:13.407Z,67.6
2023-01-07T14:30:15.849Z,67.6
2023-01-07T14:35:10.548Z,67.5
2023-01-07T14:40:17.796Z,67.4
2023-01-07T14:45:44.202Z,67.4
2023-01-07T14:51:08.638Z,67.4
2023-01-07T14:56:31.624Z,67.3
2023-01-07T15:01:56.634Z,67.3
2023-01-07T15:07:19.531Z,67.3
2023-01-07T15:12:42.177Z,67.2
2023-01-07T15:18:08.726Z,67.1
2023-01-07T15:23:31.984Z,67.1
2023-01-07T15:28:54.618Z,67
2023-01-07T15:34:18.739Z,66.9
2023-01-07T15:39:40.541Z,66.9
2023-01-07T15:45:03.521Z,66.8
2023-01-07T15:50:12.508Z,66.8
2023-01-07T15:55:38.297Z,66.8
2023-01-07T16:00:45.585Z,66.7
2023-01-07T16:06:12.676Z,66.6
2023-01-07T16:11:35.738Z,66.6
2023-01-07T16:16:45.196Z,66.6
2023-01-07T16:22:09.122Z,66.5
2023-01-07T16:27:31.814Z,66.4
2023-01-07T16:32:54.740Z,66.4
2023-01-07T16:38:18.848Z,66.3
2023-01-07T16:43:42.168Z,66.3
2023-01-07T16:49:07.318Z,66.3
2023-01-07T16:54:31.760Z,66.2
2023-01-07T16:59:54.364Z,66.1
2023-01-07T17:05:02.754Z,66.1
2023-01-07T17:10:27.642Z,66
2023-01-07T17:15:34.957Z,65.9
2023-01-07T17:20:58.358Z,65.9
2023-01-07T17:26:22.707Z,65.9
2023-01-07T17:31:34.046Z,65.8
2023-01-07T17:36:44.453Z,65.8
2023-01-07T17:41:53.376Z,65.7
2023-01-07T17:47:00.996Z,65.6
2023-01-07T17:52:23.005Z,65.6
2023-01-07T17:57:32.426Z,65.6
2023-01-07T18:02:58.120Z,65.5
2023-01-07T18:08:20.934Z,65.4
2023-01-07T18:13:45.595Z,65.4
2023-01-07T18:19:11.551Z,65.3
2023-01-07T18:24:34.235Z,65.3
2023-01-07T18:29:43.189Z,65.3
2023-01-07T18:34:50.573Z,65.2
2023-01-07T18:40:12.352Z,65.1
2023-01-07T18:45:36.191Z,65.1
2023-01-07T18:50:59.210Z,65
2023-01-07T18:56:06.569Z,64.9
2023-01-07T19:01:00.079Z,64.9
2023-01-07T19:06:24.487Z,64.9
2023-01-07T19:11:47.087Z,64.8
2023-01-07T19:17:12.576Z,64.8
2023-01-07T19:22:42.124Z,64.7
2023-01-07T19:27:35.646Z,64.7
2023-01-07T19:32:44.381Z,64.6
2023-01-07T19:37:51.656Z,64.6
2023-01-07T19:43:13.975Z,64.6
2023-01-07T19:48:22.537Z,64.4
2023-01-07T19:53:46.664Z,64.4
2023-01-07T19:59:09.851Z,64.4
2023-01-07T20:04:19.458Z,64.3
2023-01-07T20:09:44.991Z,64.3
2023-01-07T20:14:52.396Z,64.2
2023-01-07T20:20:16.939Z,64.2
2023-01-07T20:25:26.101Z,64.1
2023-01-07T20:30:48.798Z,64.1
2023-01-07T20:35:57.067Z,64
2023-01-07T20:41:04.652Z,64
2023-01-07T20:46:28.269Z,63.9
2023-01-07T20:51:36.213Z,63.8
2023-01-07T20:57:00.821Z,63.8
2023-01-07T21:02:24.597Z,63.8
2023-01-07T21:13:27.881Z,63.6
2023-01-07T21:18:51.449Z,63.6
2023-01-07T21:24:15.186Z,63.5
2023-01-07T21:29:38.684Z,63.5
2023-01-07T21:34:46.375Z,63.4
2023-01-07T21:40:09.808Z,63.4
2023-01-07T21:45:32.782Z,63.3
2023-01-07T21:50:58.136Z,63.3
2023-01-07T21:56:21.464Z,63.2
2023-01-07T22:01:45.492Z,63.1
2023-01-07T22:07:11.105Z,63.1
2023-01-07T22:12:37.251Z,63.1
2023-01-07T22:17:29.608Z,63
2023-01-07T22:22:52.372Z,62.9
2023-01-07T22:28:15.485Z,62.9
2023-01-07T22:33:38.500Z,62.9
2023-01-07T22:39:01.058Z,62.8
2023-01-07T22:44:24.099Z,62.8
2023-01-07T22:49:31.592Z,62.7
2023-01-07T22:54:54.724Z,62.6
2023-01-07T23:00:20.272Z,62.6
2023-01-07T23:05:43.630Z,62.6
2023-01-07T23:11:06.391Z,62.5
2023-01-07T23:16:30.086Z,62.5
2023-01-07T23:21:37.928Z,62.4
2023-01-07T23:27:00.924Z,62.3
2023-01-07T23:32:24.732Z,62.3
2023-01-07T23:37:47.524Z,62.3
2023-01-07T23:43:13.110Z,62.2
2023-01-07T23:48:21.036Z,62.1
2023-01-07T23:53:43.727Z,62.1
2023-01-07T23:58:51.614Z,62.1
